FredonyerEastRWIS Atmospheric Data: 11/14/2017 Summary  Detailed Graphs  Station List

  Temperature     Wind Precipitation Visibility
Timestamp Air Wet
Bulb
Dew-
point
24-hr
Max
24-hr
Min
Relative
Humidity
Atmospheric
Pressure
Avg
Speed
Avg
Dir
Spot
Speed
Spot
Dir
Max
Speed
Max
Dir
  Rate Situation Start End 1 hr 3 hr 6 hr 12 hr 24 hr   Situation
Date Time °F °F °F °F °F % in Hg mph ° mph ° mph ° Y/N in/hr text Date Time Date Time in in in in in mi text
11/14/2017 12:08 AM 41.36 35.78 24.62 44.42 40.10 51.0 Not Reported 6.71 W 4.25 W 19.91 W No x No Precipitation 11/13/2017 11:24 PM 11/13/2017 11:29 PM x x x x x Not Reported Not Reported
11/14/2017 12:23 AM 41.00 35.42 24.44 44.42 40.10 51.0 Not Reported 6.71 SW 7.38 W 15.88 SW No x No Precipitation 11/14/2017 12:14 AM 11/14/2017 12:20 AM x x x x x Not Reported Not Reported
11/14/2017 12:39 AM 41.18 35.42 23.72 44.42 40.10 49.0 Not Reported 3.80 S 4.47 S 18.34 SW No x No Precipitation 11/14/2017 12:24 AM 11/14/2017 12:28 AM x x x x x Not Reported Not Reported
11/14/2017 12:53 AM 40.82 35.24 23.90 44.42 40.10 50.0 Not Reported 6.26 S 5.37 SW 15.66 S No x No Precipitation 11/14/2017 12:48 AM 11/14/2017 12:52 AM x x x x x Not Reported Not Reported
11/14/2017 01:08 AM 40.64 34.70 22.82 44.42 40.10 48.0 Not Reported 7.38 SW 10.96 SW 20.13 SW Yes x Unknown 11/14/2017 01:07 AM   x x x x x Not Reported Not Reported
11/14/2017 01:23 AM 39.38 34.16 24.08 44.42 39.20 53.0 Not Reported 6.71 W 2.01 SE 16.55 W No x No Precipitation 11/14/2017 01:07 AM 11/14/2017 01:23 AM x x x x x Not Reported Not Reported
11/14/2017 01:39 AM 39.02 34.16 24.44 44.42 39.02 55.0 Not Reported 6.93 SW 1.57 S 16.55 S Yes x Unknown 11/14/2017 01:24 AM   x x x x x Not Reported Not Reported
11/14/2017 01:53 AM 39.02 34.16 24.26 44.42 39.02 54.0 Not Reported 2.91 SW 5.82 S 12.53 SW Yes x Unknown 11/14/2017 01:51 AM   x x x x x Not Reported Not Reported
11/14/2017 02:08 AM 39.02 33.80 23.18 44.42 39.02 52.0 Not Reported 5.37 W 10.74 W 16.33 S No x No Precipitation 11/14/2017 02:00 AM 11/14/2017 02:03 AM x x x x x Not Reported Not Reported
11/14/2017 02:24 AM 39.02 33.62 21.56 44.42 39.02 48.0 Not Reported 6.04 SW 11.41 S 14.09 SW No x No Precipitation 11/14/2017 02:00 AM 11/14/2017 02:03 AM x x x x x Not Reported Not Reported
11/14/2017 02:38 AM 39.02 33.44 21.02 44.42 39.02 48.0 Not Reported 6.93 SW 2.01 E 14.76 SW No x No Precipitation 11/14/2017 02:00 AM 11/14/2017 02:03 AM x x x x x Not Reported Not Reported
11/14/2017 02:53 AM 38.84 33.26 20.84 44.42 38.84 47.0 Not Reported 4.92 SW 1.12 N 15.43 SW No x No Precipitation 11/14/2017 02:00 AM 11/14/2017 02:03 AM x x x x x Not Reported Not Reported
11/14/2017 03:09 AM 38.48 32.90 20.48 44.42 38.48 48.0 Not Reported 4.03 W 2.46 W 12.75 SW No x No Precipitation 11/14/2017 02:00 AM 11/14/2017 02:03 AM x x x x x Not Reported Not Reported
11/14/2017 03:23 AM 38.12 32.72 20.48 44.42 38.12 48.0 Not Reported 3.36 NW 3.13 W 9.40 W No x No Precipitation 11/14/2017 02:00 AM 11/14/2017 02:03 AM x x x x x Not Reported Not Reported
11/14/2017 03:38 AM 37.76 32.54 20.66 44.42 37.76 49.0 Not Reported 3.80 W 3.36 NW 9.84 W No x No Precipitation 11/14/2017 02:00 AM 11/14/2017 02:03 AM x x x x x Not Reported Not Reported
11/14/2017 03:54 AM 37.58 32.36 21.20 44.42 37.40 51.0 Not Reported 3.13 SW 1.34 W 8.50 NW No x No Precipitation 11/14/2017 02:00 AM 11/14/2017 02:03 AM x x x x x Not Reported Not Reported
11/14/2017 04:08 AM 37.76 32.54 21.02 44.42 37.40 50.0 Not Reported 6.26 S 0.89 SW 11.86 SW No x No Precipitation 11/14/2017 04:06 AM 11/14/2017 04:07 AM x x x x x Not Reported Not Reported
11/14/2017 04:23 AM 37.76 32.54 20.66 44.42 37.40 49.0 Not Reported 3.80 W 6.93 SW 12.97 SE No x No Precipitation 11/14/2017 04:20 AM 11/14/2017 04:23 AM x x x x x Not Reported Not Reported
11/14/2017 04:38 AM 37.58 32.18 20.12 44.42 37.40 49.0 Not Reported 2.91 S 2.01 S 11.63 SW No x No Precipitation 11/14/2017 04:26 AM 11/14/2017 04:27 AM x x x x x Not Reported Not Reported
11/14/2017 04:53 AM 37.04 32.18 19.94 44.42 37.04 49.0 Not Reported 4.92 SW 1.34 E 11.18 SW Yes x Unknown 11/14/2017 04:39 AM   x x x x x Not Reported Not Reported
11/14/2017 05:09 AM 36.68 31.82 20.12 44.42 36.68 50.0 Not Reported 2.91 W 7.83 W 14.76 SW No x No Precipitation 11/14/2017 04:39 AM 11/14/2017 05:01 AM x x x x x Not Reported Not Reported
11/14/2017 05:23 AM 36.50 31.46 20.30 44.42 36.32 51.0 Not Reported 2.46 NW 1.57 NW 7.83 S No x No Precipitation 11/14/2017 04:39 AM 11/14/2017 05:01 AM x x x x x Not Reported Not Reported
11/14/2017 05:38 AM 36.32 31.46 21.02 44.42 36.14 53.0 Not Reported 2.68 W 1.79 W 13.42 W Yes x Unknown 11/14/2017 05:38 AM   x x x x x Not Reported Not Reported
11/14/2017 05:53 AM 35.42 30.92 21.20 44.42 35.42 55.0 Not Reported 3.13 NW 3.13 W 6.49 NW No x No Precipitation 11/14/2017 05:38 AM 11/14/2017 05:39 AM x x x x x Not Reported Not Reported
11/14/2017 06:09 AM 34.16 30.20 21.56 44.42 34.16 59.0 Not Reported 2.46 NW 1.12 SW 3.58 W No x No Precipitation 11/14/2017 05:38 AM 11/14/2017 05:39 AM x x x x x Not Reported Not Reported
11/14/2017 06:23 AM 33.08 29.30 21.38 44.42 33.08 61.0 Not Reported 1.57 NW 0.00 NW 3.13 NW No x No Precipitation 11/14/2017 05:38 AM 11/14/2017 05:39 AM x x x x x Not Reported Not Reported
11/14/2017 06:38 AM 31.82 28.58 20.84 44.42 31.82 63.0 Not Reported 0.45 SE 0.22 NW 2.46 NE No x No Precipitation 11/14/2017 05:38 AM 11/14/2017 05:39 AM x x x x x Not Reported Not Reported
11/14/2017 06:55 AM 31.64 28.40 21.20 44.42 31.28 65.0 Not Reported 2.68 SW 2.01 S 4.47 S No x No Precipitation 11/14/2017 05:38 AM 11/14/2017 05:39 AM x x x x x Not Reported Not Reported
11/14/2017 07:09 AM 33.08 29.48 21.02 44.42 31.28 60.0 Not Reported 3.58 S 4.25 S 9.17 SW No x No Precipitation 11/14/2017 05:38 AM 11/14/2017 05:39 AM x x x x x Not Reported Not Reported
11/14/2017 07:23 AM 34.34 30.02 19.76 44.42 31.28 54.0 Not Reported 3.80 SW 2.91 SW 8.50 SW No x No Precipitation 11/14/2017 05:38 AM 11/14/2017 05:39 AM x x x x x Not Reported Not Reported
11/14/2017 07:40 AM 36.14 31.28 19.94 44.42 31.28 51.0 Not Reported 1.79 W 4.92 SW 8.50 SW No x No Precipitation 11/14/2017 05:38 AM 11/14/2017 05:39 AM x x x x x Not Reported Not Reported
11/14/2017 08:12 AM 37.76 32.72 20.30 44.42 31.28 48.0 Not Reported 2.68 SW 2.46 W 9.40 W No x No Precipitation 11/14/2017 05:38 AM 11/14/2017 05:39 AM x x x x x Not Reported Not Reported
11/14/2017 08:24 AM 39.38 33.62 20.12 44.42 31.28 45.0 Not Reported 1.34 SW 2.68 S 9.84 W No x No Precipitation 11/14/2017 05:38 AM 11/14/2017 05:39 AM x x x x x Not Reported Not Reported
11/14/2017 08:41 AM 39.02 33.26 19.22 44.42 31.28 44.0 Not Reported 3.80 SW 2.01 S 8.28 SW No x No Precipitation 11/14/2017 05:38 AM 11/14/2017 05:39 AM x x x x x Not Reported Not Reported
11/14/2017 08:53 AM 39.20 33.44 19.40 44.42 31.28 44.0 Not Reported 3.13 SW 2.01 SE 10.96 SW No x No Precipitation 11/14/2017 05:38 AM 11/14/2017 05:39 AM x x x x x Not Reported Not Reported
11/14/2017 09:10 AM 38.84 33.08 19.22 44.42 31.28 44.0 Not Reported 2.91 SW 4.92 SW 12.08 W No x No Precipitation 11/14/2017 05:38 AM 11/14/2017 05:39 AM x x x x x Not Reported Not Reported
11/14/2017 09:23 AM 39.02 33.26 19.76 44.42 31.28 45.0 Not Reported 7.16 S 7.83 S 14.54 W No x No Precipitation 11/14/2017 05:38 AM 11/14/2017 05:39 AM x x x x x Not Reported Not Reported
11/14/2017 09:38 AM 39.74 33.80 19.94 44.42 31.28 44.0 Not Reported 5.37 SW 2.68 NW 13.65 S No x No Precipitation 11/14/2017 05:38 AM 11/14/2017 05:39 AM x x x x x Not Reported Not Reported
11/14/2017 09:54 AM 40.28 34.16 20.30 44.24 31.28 44.0 Not Reported 4.92 SE 10.51 S 11.86 S No x No Precipitation 11/14/2017 05:38 AM 11/14/2017 05:39 AM x x x x x Not Reported Not Reported
11/14/2017 10:09 AM 41.54 35.06 20.48 44.24 31.28 42.0 Not Reported 2.91 W 3.13 W 10.96 SW No x No Precipitation 11/14/2017 05:38 AM 11/14/2017 05:39 AM x x x x x Not Reported Not Reported
11/14/2017 10:23 AM 42.98 35.96 20.48 44.24 31.28 40.0 Not Reported 6.04 S 8.95 S 9.62 SE No x No Precipitation 11/14/2017 05:38 AM 11/14/2017 05:39 AM x x x x x Not Reported Not Reported
11/14/2017 10:38 AM 43.34 36.32 19.76 44.24 31.28 38.0 Not Reported 4.47 SE 5.37 S 9.17 S No x No Precipitation 11/14/2017 05:38 AM 11/14/2017 05:39 AM x x x x x Not Reported Not Reported
11/14/2017 10:53 AM 44.24 36.86 19.76 44.42 31.28 37.0 Not Reported 8.28 SE 11.86 SE 12.08 S No x No Precipitation 11/14/2017 05:38 AM 11/14/2017 05:39 AM x x x x x Not Reported Not Reported
11/14/2017 11:09 AM 44.24 36.86 19.04 44.78 31.28 35.0 Not Reported 8.05 S 9.17 SE 12.53 SE No x No Precipitation 11/14/2017 05:38 AM 11/14/2017 05:39 AM x x x x x Not Reported Not Reported
11/14/2017 11:24 AM 45.32 37.58 19.22 45.50 31.28 34.0 Not Reported 3.36 SE 3.58 SE 7.38 S No x No Precipitation 11/14/2017 05:38 AM 11/14/2017 05:39 AM x x x x x Not Reported Not Reported
11/14/2017 11:39 AM 44.96 37.22 18.86 45.50 31.28 34.0 Not Reported 4.25 SE 4.70 SE 8.72 SE No x No Precipitation 11/14/2017 05:38 AM 11/14/2017 05:39 AM x x x x x Not Reported Not Reported
11/14/2017 11:53 AM 45.68 37.94 19.58 45.86 31.28 34.0 Not Reported 5.59 SE 8.05 S 10.51 S No x No Precipitation 11/14/2017 05:38 AM 11/14/2017 05:39 AM x x x x x Not Reported Not Reported
11/14/2017 12:08 PM 46.58 38.48 19.40 46.76 31.28 33.0 Not Reported 2.24 W 2.01 SW 6.26 SW No x No Precipitation 11/14/2017 05:38 AM 11/14/2017 05:39 AM x x x x x Not Reported Not Reported
11/14/2017 12:24 PM 47.66 39.38 19.40 47.66 31.28 32.0 Not Reported 4.70 S 6.04 S 7.16 S No x No Precipitation 11/14/2017 05:38 AM 11/14/2017 05:39 AM x x x x x Not Reported Not Reported
11/14/2017 12:39 PM 48.38 39.74 18.86 48.92 31.28 30.0 Not Reported 2.68 S 3.36 S 7.38 SW No x No Precipitation 11/14/2017 05:38 AM 11/14/2017 05:39 AM x x x x x Not Reported Not Reported
11/14/2017 12:53 PM 49.10 40.28 18.86 49.10 31.28 29.0 Not Reported 3.36 S 2.01 SE 10.51 SE No x No Precipitation 11/14/2017 05:38 AM 11/14/2017 05:39 AM x x x x x Not Reported Not Reported
11/14/2017 01:09 PM 50.18 41.00 19.22 50.36 31.28 29.0 Not Reported 3.36 SW 1.57 SW 7.61 W No x No Precipitation 11/14/2017 05:38 AM 11/14/2017 05:39 AM x x x x x Not Reported Not Reported
11/14/2017 01:23 PM 49.46 40.46 17.96 50.36 31.28 28.0 Not Reported 5.37 SW 1.57 SW 12.30 S No x No Precipitation 11/14/2017 05:38 AM 11/14/2017 05:39 AM x x x x x Not Reported Not Reported
11/14/2017 01:38 PM 49.10 40.10 18.14 50.36 31.28 29.0 Not Reported 3.36 S 4.92 SE 10.07 S No x No Precipitation 11/14/2017 05:38 AM 11/14/2017 05:39 AM x x x x x Not Reported Not Reported
11/14/2017 01:53 PM 49.64 40.64 18.86 50.36 31.28 29.0 Not Reported 3.36 SE 1.12 E 10.07 SW No x No Precipitation 11/14/2017 05:38 AM 11/14/2017 05:39 AM x x x x x Not Reported Not Reported
11/14/2017 02:09 PM 50.00 40.82 18.86 50.72 31.28 28.0 Not Reported 2.46 W 1.57 SW 8.95 W No x No Precipitation 11/14/2017 05:38 AM 11/14/2017 05:39 AM x x x x x Not Reported Not Reported
11/14/2017 02:23 PM 48.74 40.10 18.68 50.72 31.28 29.0 Not Reported 3.36 SE 3.58 SW 5.82 W No x No Precipitation 11/14/2017 05:38 AM 11/14/2017 05:39 AM x x x x x Not Reported Not Reported
11/14/2017 02:38 PM 47.30 39.02 18.14 50.72 31.28 31.0 Not Reported 2.01 SW 2.24 SW 9.40 S No x No Precipitation 11/14/2017 05:38 AM 11/14/2017 05:39 AM x x x x x Not Reported Not Reported
11/14/2017 02:54 PM 46.94 38.84 18.86 50.72 31.28 32.0 Not Reported 3.13 S 2.68 SE 6.93 S No x No Precipitation 11/14/2017 05:38 AM 11/14/2017 05:39 AM x x x x x Not Reported Not Reported
11/14/2017 03:09 PM 47.48 39.02 19.58 50.72 31.28 32.0 Not Reported 4.70 W 5.14 SE 9.62 N No x No Precipitation 11/14/2017 05:38 AM 11/14/2017 05:39 AM x x x x x Not Reported Not Reported
11/14/2017 03:23 PM 47.66 39.20 19.76 50.72 31.28 32.0 Not Reported 3.13 SW 1.34 SW 10.07 SW No x No Precipitation 11/14/2017 05:38 AM 11/14/2017 05:39 AM x x x x x Not Reported Not Reported
11/14/2017 03:38 PM 46.40 38.48 20.12 50.72 31.28 34.0 Not Reported 1.34 S 2.01 W 7.38 SW No x No Precipitation 11/14/2017 05:38 AM 11/14/2017 05:39 AM x x x x x Not Reported Not Reported
11/14/2017 03:54 PM 45.68 37.94 19.58 50.72 31.28 35.0 Not Reported 1.34 SW 2.46 SW 8.50 SW No x No Precipitation 11/14/2017 05:38 AM 11/14/2017 05:39 AM x x x x x Not Reported Not Reported
11/14/2017 04:09 PM 45.32 37.58 19.94 50.72 31.28 35.0 Not Reported 5.37 SW 5.59 SW 10.51 SW No x No Precipitation 11/14/2017 05:38 AM 11/14/2017 05:39 AM x x x x x Not Reported Not Reported
11/14/2017 04:24 PM 44.78 37.22 19.94 50.72 31.28 36.0 Not Reported 3.36 SW 4.70 NW 8.05 SW No x No Precipitation 11/14/2017 05:38 AM 11/14/2017 05:39 AM x x x x x Not Reported Not Reported
11/14/2017 04:38 PM 43.88 36.68 19.76 50.72 31.28 37.0 Not Reported 3.58 W 4.47 S 6.71 W No x No Precipitation 11/14/2017 05:38 AM 11/14/2017 05:39 AM x x x x x Not Reported Not Reported
11/14/2017 04:53 PM 42.98 35.96 20.30 50.72 31.28 40.0 Not Reported 1.34 SW 1.34 W 6.26 NW No x No Precipitation 11/14/2017 05:38 AM 11/14/2017 05:39 AM x x x x x Not Reported Not Reported
11/14/2017 05:09 PM 42.26 35.60 21.38 50.72 31.28 43.0 Not Reported 0.89 W 0.00 W 5.82 S No x No Precipitation 11/14/2017 05:38 AM 11/14/2017 05:39 AM x x x x x Not Reported Not Reported
11/14/2017 05:24 PM 40.46 34.70 22.10 50.72 31.28 47.0 Not Reported 1.12 S 1.79 NW 3.13 W No x No Precipitation 11/14/2017 05:38 AM 11/14/2017 05:39 AM x x x x x Not Reported Not Reported
11/14/2017 05:38 PM 39.20 33.98 23.36 50.72 31.28 52.0 Not Reported 0.67 W 1.79 SW 2.91 SW No x No Precipitation 11/14/2017 05:38 AM 11/14/2017 05:39 AM x x x x x Not Reported Not Reported
11/14/2017 05:55 PM 38.66 33.62 23.90 50.72 31.28 54.0 Not Reported 0.22 NW 0.00 NW 2.01 NW No x No Precipitation 11/14/2017 05:38 AM 11/14/2017 05:39 AM x x x x x Not Reported Not Reported
11/14/2017 06:10 PM 37.94 33.26 24.26 50.72 31.28 57.0 Not Reported 0.00 NE 0.00 NE 1.79 NW No x No Precipitation 11/14/2017 05:38 AM 11/14/2017 05:39 AM x x x x x Not Reported Not Reported
11/14/2017 06:25 PM 36.86 32.54 23.90 50.72 31.28 58.0 Not Reported 0.45 NE 1.34 E 1.79 N No x No Precipitation 11/14/2017 05:38 AM 11/14/2017 05:39 AM x x x x x Not Reported Not Reported
11/14/2017 06:38 PM 37.04 32.72 24.44 50.72 31.28 60.0 Not Reported 0.00 NW 1.34 NW 1.57 N No x No Precipitation 11/14/2017 05:38 AM 11/14/2017 05:39 AM x x x x x Not Reported Not Reported
11/14/2017 06:54 PM 36.68 32.72 24.80 50.72 31.28 61.0 Not Reported 0.22 S 0.00 SW 4.03 W No x No Precipitation 11/14/2017 05:38 AM 11/14/2017 05:39 AM x x x x x Not Reported Not Reported
11/14/2017 07:10 PM 35.60 31.64 24.08 50.72 31.28 62.0 Not Reported 1.12 W 2.01 NW 2.24 NW No x No Precipitation 11/14/2017 05:38 AM 11/14/2017 05:39 AM x x x x x Not Reported Not Reported
11/14/2017 07:24 PM 34.52 30.92 23.54 50.72 31.28 63.0 Not Reported 0.67 N 0.00 S 2.46 N No x No Precipitation 11/14/2017 05:38 AM 11/14/2017 05:39 AM x x x x x Not Reported Not Reported
11/14/2017 07:38 PM 34.16 30.56 23.54 50.72 31.28 64.0 Not Reported 0.89 S 1.57 NW 2.46 SW No x No Precipitation 11/14/2017 05:38 AM 11/14/2017 05:39 AM x x x x x Not Reported Not Reported
11/14/2017 07:54 PM 33.80 30.20 23.54 50.72 31.28 65.0 Not Reported 1.57 NW 2.01 NW 3.13 N No x No Precipitation 11/14/2017 05:38 AM 11/14/2017 05:39 AM x x x x x Not Reported Not Reported
11/14/2017 08:08 PM 34.88 31.28 23.72 50.72 31.28 63.0 Not Reported 1.34 W 2.24 W 6.49 E No x No Precipitation 11/14/2017 05:38 AM 11/14/2017 05:39 AM x x x x x Not Reported Not Reported
11/14/2017 08:23 PM 35.96 31.64 22.64 50.72 31.28 57.0 Not Reported 2.91 NW 0.89 W 5.59 NW No x No Precipitation 11/14/2017 05:38 AM 11/14/2017 05:39 AM x x x x x Not Reported Not Reported
11/14/2017 08:38 PM 38.30 32.90 20.66 50.72 31.28 48.0 Not Reported 1.57 W 2.24 SW 6.93 SW No x No Precipitation 11/14/2017 05:38 AM 11/14/2017 05:39 AM x x x x x Not Reported Not Reported
11/14/2017 08:54 PM 38.66 33.26 20.66 50.72 31.28 47.0 Not Reported 3.36 SW 2.91 NW 9.84 W No x No Precipitation 11/14/2017 05:38 AM 11/14/2017 05:39 AM x x x x x Not Reported Not Reported
11/14/2017 09:09 PM 41.00 34.70 20.30 50.72 31.28 42.0 Not Reported 2.01 SW 2.01 W 8.28 W No x No Precipitation 11/14/2017 05:38 AM 11/14/2017 05:39 AM x x x x x Not Reported Not Reported
11/14/2017 09:24 PM 41.90 35.24 20.12 50.72 31.28 41.0 Not Reported 5.59 W 3.36 W 15.21 S No x No Precipitation 11/14/2017 05:38 AM 11/14/2017 05:39 AM x x x x x Not Reported Not Reported
11/14/2017 09:38 PM 42.26 35.60 20.12 50.72 31.28 40.0 Not Reported 4.03 S 4.47 SE 13.87 SW No x No Precipitation 11/14/2017 05:38 AM 11/14/2017 05:39 AM x x x x x Not Reported Not Reported
11/14/2017 09:53 PM 42.26 35.42 19.40 50.72 31.28 39.0 Not Reported 4.03 SW 5.59 S 14.99 SW No x No Precipitation 11/14/2017 05:38 AM 11/14/2017 05:39 AM x x x x x Not Reported Not Reported
11/14/2017 10:08 PM 41.54 34.88 19.04 50.72 31.28 39.0 Not Reported 2.68 NW 1.79 NW 14.76 S No x No Precipitation 11/14/2017 05:38 AM 11/14/2017 05:39 AM x x x x x Not Reported Not Reported
11/14/2017 10:23 PM 41.54 34.88 18.14 50.72 31.28 38.0 Not Reported 5.14 S 2.24 NW 13.42 NW No x No Precipitation 11/14/2017 05:38 AM 11/14/2017 05:39 AM x x x x x Not Reported Not Reported
11/14/2017 10:38 PM 41.54 34.70 17.24 50.72 31.28 37.0 Not Reported 4.25 W 2.01 W 14.32 W No x No Precipitation 11/14/2017 05:38 AM 11/14/2017 05:39 AM x x x x x Not Reported Not Reported
11/14/2017 10:53 PM 41.54 34.70 17.24 50.72 31.28 37.0 Not Reported 4.03 SW 2.24 S 10.74 NW No x No Precipitation 11/14/2017 05:38 AM 11/14/2017 05:39 AM x x x x x Not Reported Not Reported
11/14/2017 11:08 PM 42.08 35.06 17.78 50.72 31.28 36.0 Not Reported 3.13 W 3.80 SW 14.54 S No x No Precipitation 11/14/2017 05:38 AM 11/14/2017 05:39 AM x x x x x Not Reported Not Reported
11/14/2017 11:26 PM 41.72 34.88 18.14 50.72 31.28 38.0 Not Reported 1.79 S 3.13 NW 14.76 W No x No Precipitation 11/14/2017 05:38 AM 11/14/2017 05:39 AM x x x x x Not Reported Not Reported
11/14/2017 11:38 PM 41.54 34.70 18.14 50.72 31.28 38.0 Not Reported 5.59 SW 4.03 NW 11.63 NW No x No Precipitation 11/14/2017 05:38 AM 11/14/2017 05:39 AM x x x x x Not Reported Not Reported
11/14/2017 11:53 PM 41.72 35.06 18.50 50.72 31.28 38.0 Not Reported 8.28 SW 0.89 SE 17.00 W No x No Precipitation 11/14/2017 05:38 AM 11/14/2017 05:39 AM x x x x x Not Reported Not Reported